Stations météo

Publicité
Neuchatel, Suisse (6604): Température de l'air & dewpoint: 02.04.2020 04:00:00 - 08.04.2020 04:00:00 (CEST)Neuchatel, Suisse (6604): Température de l'air 5cm: 02.04.2020 04:00:00 - 08.04.2020 04:00:00 (CEST)Neuchatel, Suisse (6604): Vitesse du vent & gusts: 02.04.2020 04:00:00 - 08.04.2020 04:00:00 (CEST)Neuchatel, Suisse (6604): Direction du vent: 02.04.2020 04:00:00 - 08.04.2020 04:00:00 (CEST)Neuchatel, Suisse (6604): reduced air pressure: 02.04.2020 04:00:00 - 08.04.2020 04:00:00 (CEST)Neuchatel, Suisse (6604): Ensoleillement: 02.04.2020 04:00:00 - 08.04.2020 04:00:00 (CEST)Neuchatel, Suisse (6604): Quantités de précipitations: 02.04.2020 04:00:00 - 08.04.2020 04:00:00 (CEST)
Date & Time tt [°C] td [°C] tt 5cm [°C] ff [km/h] ff [knt] fx [km/h] fx [knt] dd ppp [hPa] sd [min] rr [mm]
08.04.2020 04:00:00 9,3 4,0 3,8 4 2 7 4 NE 1027,4 0 0,0
08.04.2020 03:00:00 9,9 4,7 4,3 2 1 4 2 SE 1027,2 0 0,0
08.04.2020 02:00:00 11,0 4,7 5,2 1 1 4 2 SW 1027,2 0 0,0
08.04.2020 01:00:00 11,7 3,1 5,4 0 0 5 3 SW 1026,6 0 0,0
08.04.2020 00:00:00 14,4 0,5 9,0 3 2 5 3 WSW 1025,7 0 0,0
07.04.2020 23:00:00 15,4 1,9 9,2 4 2 6 4 W 1025,3 0 0,0
07.04.2020 22:00:00 16,6 0,3 10,8 4 2 16 8 NE 1024,9 0 0,0
07.04.2020 21:00:00 16,9 0,9 12,0 11 6 16 9 NNE 1024,6 0 0,0
07.04.2020 20:00:00 18,4 0,9 12,9 9 5 16 9 NNE 1023,8 37 0,0
07.04.2020 19:00:00 20,4 0,7 19,6 9 5 21 12 ENE 1023,5 60 0,0
07.04.2020 18:00:00 21,0 0,7 24,4 14 8 24 13 ENE 1023,3 60 0,0
07.04.2020 17:00:00 21,2 0,5 26,6 15 8 29 16 ENE 1023,7 60 0,0
07.04.2020 16:00:00 21,2 0,1 27,6 18 10 39 21 ENE 1024,0 60 0,0
07.04.2020 15:00:00 20,9 -1,0 27,2 23 12 41 22 E 1024,6 60 0,0
07.04.2020 14:00:00 18,9 2,1 27,7 10 5 23 13 ESE 1025,5 60 0,0
07.04.2020 13:00:00 16,0 3,2 25,5 4 2 9 5 S 1026,9 60 0,0
07.04.2020 12:00:00 13,0 1,9 22,8 5 3 11 6 SE 1028,3 60 0,0
07.04.2020 11:00:00 11,3 0,1 20,3 4 2 8 5 SSE 1029,0 60 0,0
07.04.2020 10:00:00 9,8 2,8 17,6 3 2 8 4 SE 1029,6 60 0,0
07.04.2020 09:00:00 8,6 2,1 13,0 5 3 10 5 E 1029,9 60 0,0
07.04.2020 08:00:00 7,4 1,8 7,4 0 0 6 4 ENE 1030,0 45 0,0
07.04.2020 07:00:00 6,5 1,7 1,6 6 3 8 4 ENE 1029,8 0 0,0
07.04.2020 06:00:00 7,3 0,7 1,4 1 1 3 1 W 1029,4 0 0,0
07.04.2020 05:00:00 7,9 0,8 2,5 0 0 4 2 N 1029,1 0 0,0
07.04.2020 04:00:00 9,0 0,1 4,0 0 0 7 4 NNE 1028,6 0 0,0
07.04.2020 03:00:00 9,5 0,0 3,3 4 2 6 4 NE 1028,3 0 0,0
07.04.2020 02:00:00 10,5 -0,2 4,0 1 1 5 3 N 1027,8 0 0,0
07.04.2020 01:00:00 11,4 -0,5 6,2 1 1 5 3 SSW 1027,3 0 0,0
07.04.2020 00:00:00 13,2 -0,9 6,2 5 3 9 5 NNE 1026,2 0 0,0
06.04.2020 23:00:00 13,6 1,3 8,9 7 4 26 14 E 1025,9 0 0,0
06.04.2020 22:00:00 16,9 -1,3 12,9 15 8 27 15 N 1024,6 0 0,0
06.04.2020 21:00:00 16,5 -0,9 9,9 10 5 19 10 N 1024,0 0 0,0
06.04.2020 20:00:00 15,4 -0,2 11,3 1 1 5 3 NNW 1023,5 36 0,0
06.04.2020 19:00:00 17,1 -1,7 16,8 2 1 7 4 S 1022,7 60 0,0
06.04.2020 18:00:00 18,1 -1,3 23,3 5 3 11 6 S 1022,3 60 0,0
06.04.2020 17:00:00 18,8 -2,1 25,5 6 4 15 8 SSW 1022,4 60 0,0
06.04.2020 16:00:00 18,8 -0,7 26,5 9 5 16 9 SSW 1022,6 60 0,0
06.04.2020 15:00:00 18,9 -1,6 27,1 7 4 17 9 WSW 1023,0 60 0,0
06.04.2020 14:00:00 16,9 0,9 26,6 10 6 18 10 SW 1023,5 60 0,0
06.04.2020 13:00:00 15,0 2,6 25,0 8 4 16 8 SW 1024,0 60 0,0
06.04.2020 12:00:00 12,7 1,3 21,9 8 4 10 5 SSW 1024,7 60 0,0
06.04.2020 11:00:00 10,8 3,4 19,6 4 2 8 4 SW 1025,1 60 0,0
06.04.2020 10:00:00 8,5 3,8 16,7 3 2 7 4 SSE 1025,3 60 0,0
06.04.2020 09:00:00 7,9 2,8 12,6 4 2 6 4 E 1025,0 60 0,0
06.04.2020 08:00:00 6,3 2,2 6,3 3 2 7 4 ENE 1024,7 42 0,0
06.04.2020 07:00:00 6,0 1,8 0,2 5 3 6 3 ENE 1023,9 0 0,0
06.04.2020 06:00:00 6,3 0,7 1,8 2 1 3 2 NE 1023,4 0 0,0
06.04.2020 05:00:00 7,2 1,1 2,0 1 1 4 2 ESE 1022,7 0 0,0
06.04.2020 04:00:00 7,8 1,1 2,8 2 1 4 2 WSW 1022,1 0 0,0
06.04.2020 03:00:00 8,4 -0,4 3,2 0 0 4 2 SSE 1021,5 0 0,0
06.04.2020 02:00:00 8,9 3,6 2,5 2 1 9 5 ENE 1021,0 0 0,0
06.04.2020 01:00:00 10,1 -0,4 3,7 3 2 5 3 NNE 1020,4 0 0,0
06.04.2020 00:00:00 11,5 -0,7 6,6 1 0 5 3 W 1019,9 0 0,0
05.04.2020 23:00:00 12,1 -0,2 6,5 3 1 6 4 W 1019,2 0 0,0
05.04.2020 22:00:00 13,5 -1,7 7,7 2 1 12 7 NNE 1018,7 0 0,0
05.04.2020 21:00:00 12,8 -0,6 7,4 7 4 12 6 N 1018,5 0 0,0
05.04.2020 20:00:00 14,8 0,7 9,5 6 3 7 4 NNW 1017,9 35 0,0
05.04.2020 19:00:00 17,1 -0,8 16,8 1 0 8 4 SSE 1017,4 60 0,0
05.04.2020 18:00:00 17,3 -1,6 23,1 3 2 8 5 SSW 1017,5 60 0,0
05.04.2020 17:00:00 17,1 1,2 24,7 5 3 10 5 SSW 1018,0 60 0,0
05.04.2020 16:00:00 15,9 1,8 24,6 5 3 11 6 S 1019,0 60 0,0
05.04.2020 15:00:00 16,3 3,0 25,3 4 2 10 5 S 1019,5 60 0,0
05.04.2020 14:00:00 13,9 1,9 23,9 5 3 9 5 SSE 1020,6 60 0,0
05.04.2020 13:00:00 13,0 2,3 22,7 5 3 10 6 S 1021,7 60 0,0
05.04.2020 12:00:00 11,0 1,7 20,3 5 3 10 5 SSE 1022,7 60 0,0
05.04.2020 11:00:00 8,5 1,1 17,7 5 3 10 5 SSE 1023,6 60 0,0
05.04.2020 10:00:00 7,6 1,5 15,0 3 2 7 4 SSE 1024,0 60 0,0
05.04.2020 09:00:00 6,0 1,7 11,2 4 2 7 4 E 1024,5 60 0,0
05.04.2020 08:00:00 5,6 1,0 4,8 1 1 4 2 ESE 1024,2 41 0,0
05.04.2020 07:00:00 4,9 0,1 -0,2 3 1 5 3 W 1023,8 0 0,0
05.04.2020 06:00:00 5,5 -1,1 0,1 2 1 4 2 WNW 1023,2 0 0,0
05.04.2020 05:00:00 6,2 -1,2 1,5 2 1 4 2 WSW 1022,9 0 0,0
05.04.2020 04:00:00 6,6 -0,5 0,5 2 1 8 5 ENE 1022,9 0 0,0
05.04.2020 03:00:00 7,4 -1,0 2,2 3 2 5 3 W 1022,6 0 0,0
05.04.2020 02:00:00 9,0 0,8 4,0 3 1 17 9 WSW 1022,3 0 0,0
05.04.2020 01:00:00 10,9 -1,9 7,2 9 5 35 19 ENE 1021,6 0 0,0
05.04.2020 00:00:00 12,2 -3,1 9,1 16 9 33 18 NE 1021,1 0 0,0
04.04.2020 23:00:00 12,7 -2,5 9,4 18 10 34 18 NE 1021,0 0 0,0
04.04.2020 22:00:00 13,2 -1,7 9,4 17 9 30 16 NE 1020,8 0 0,0
04.04.2020 21:00:00 13,3 -1,4 9,1 15 8 32 17 NE 1020,3 0 0,0
04.04.2020 20:00:00 13,3 -1,2 7,9 9 5 14 8 NNE 1019,8 35 0,0
04.04.2020 19:00:00 14,8 -1,3 13,8 4 2 9 5 E 1019,4 60 0,0
04.04.2020 18:00:00 15,5 -1,1 20,6 3 2 9 5 ESE 1019,2 60 0,0
04.04.2020 17:00:00 15,4 -1,0 22,8 4 2 9 5 ESE 1019,4 60 0,0
04.04.2020 16:00:00 15,0 -0,6 23,6 5 3 11 6 ESE 1019,9 60 0,0
04.04.2020 15:00:00 13,8 -0,7 23,3 8 4 14 8 SE 1020,6 60 0,0
04.04.2020 14:00:00 13,7 0,3 22,0 9 5 26 14 E 1020,8 60 0,0
04.04.2020 13:00:00 12,4 0,3 20,1 16 9 32 18 E 1021,5 60 0,0
04.04.2020 12:00:00 11,5 0,4 17,6 22 12 37 20 E 1022,1 60 0,0
04.04.2020 11:00:00 10,2 -0,3 15,9 22 12 33 18 E 1022,5 60 0,0
04.04.2020 10:00:00 6,7 1,5 13,7 5 3 8 4 SSE 1023,3 60 0,0
04.04.2020 09:00:00 4,8 0,9 10,2 2 1 9 5 SSE 1023,2 60 0,0
04.04.2020 08:00:00 5,8 -2,1 4,2 2 1 13 7 E 1022,3 30 0,0
04.04.2020 07:00:00 5,2 -2,7 0,0 5 3 16 8 ENE 1021,7 0 0,0
04.04.2020 06:00:00 5,2 -3,1 -0,1 8 4 16 8 ENE 1021,2 0 0,0
04.04.2020 05:00:00 5,1 -3,1 -0,2 0 0 5 3 E 1021,3 0 0,0
04.04.2020 04:00:00 5,6 -2,3 0,3 3 1 12 6 SSE 1021,1 0 0,0
04.04.2020 03:00:00 6,3 -3,3 0,7 3 2 18 10 E 1021,1 0 0,0
04.04.2020 02:00:00 6,8 -2,6 1,8 9 5 21 11 NNE 1021,0 0 0,0
04.04.2020 01:00:00 7,4 -2,3 2,7 11 6 18 10 NNE 1020,9 0 0,0
04.04.2020 00:00:00 6,9 -2,1 3,1 1 1 7 4 SW 1020,4 0 0,0
03.04.2020 23:00:00 8,4 -1,8 2,6 6 3 35 19 E 1019,8 0 0,0
03.04.2020 22:00:00 9,6 -2,0 7,5 28 15 49 26 N 1018,8 0 0,0
03.04.2020 21:00:00 10,0 -2,0 8,4 28 15 47 25 NNW 1018,0 0 0,0
03.04.2020 20:00:00 11,0 -3,0 9,2 23 12 37 20 NNW 1017,1 34 0,0
03.04.2020 19:00:00 12,2 -3,3 11,6 19 10 33 18 N 1016,3 60 0,0
03.04.2020 18:00:00 13,5 -3,2 18,4 13 7 26 14 N 1015,6 60 0,0
03.04.2020 17:00:00 13,9 -1,2 20,4 4 2 11 6 ENE 1015,3 60 0,0
03.04.2020 16:00:00 12,7 -4,4 21,6 6 3 11 6 SSW 1015,6 60 0,0
03.04.2020 15:00:00 11,9 -3,5 21,5 6 3 13 7 S 1015,8 60 0,0
03.04.2020 14:00:00 12,1 -1,5 21,0 8 4 12 6 S 1016,2 60 0,0
03.04.2020 13:00:00 10,9 -2,2 20,3 6 3 12 6 SSE 1016,7 60 0,0
03.04.2020 12:00:00 9,4 -1,9 17,9 6 3 9 5 ESE 1017,2 60 0,0
03.04.2020 11:00:00 7,6 -1,9 16,0 5 3 9 5 SE 1017,4 60 0,0
03.04.2020 10:00:00 6,3 -1,2 12,5 6 3 10 6 E 1017,2 60 0,0
03.04.2020 09:00:00 4,4 -1,0 9,1 3 2 6 3 E 1017,1 60 0,0
03.04.2020 08:00:00 4,2 -4,0 2,1 1 0 4 2 W 1016,6 29 0,0
03.04.2020 07:00:00 3,6 -3,8 -1,1 1 0 3 2 ESE 1016,2 0 0,0
03.04.2020 06:00:00 3,6 -1,7 -1,7 3 2 6 4 E 1015,9 0 0,0
03.04.2020 05:00:00 4,5 -2,8 -0,5 3 2 6 3 N 1015,4 0 0,0
03.04.2020 04:00:00 6,4 -4,6 1,1 4 2 8 4 NNW 1014,8 0 0,0
03.04.2020 03:00:00 5,9 -1,4 2,3 3 2 22 12 E 1014,6 0 0,0
03.04.2020 02:00:00 6,4 -5,1 1,9 3 1 7 4 N 1014,4 0 0,0
03.04.2020 01:00:00 8,0 -6,0 2,1 2 1 12 7 NE 1013,9 0 0,0
03.04.2020 00:00:00 8,6 -6,1 4,5 5 3 27 14 ENE 1013,5 0 0,0
02.04.2020 23:00:00 10,1 -7,7 8,2 18 10 46 25 NW 1012,3 0 0,0
02.04.2020 22:00:00 10,3 -8,1 8,6 27 15 53 29 NW 1012,2 0 0,0
02.04.2020 21:00:00 10,5 -8,4 9,0 32 17 55 30 NW 1011,6 0 0,0
02.04.2020 20:00:00 11,3 -7,6 9,7 25 13 45 24 NW 1011,0 33 0,0
02.04.2020 19:00:00 13,0 -6,2 12,0 15 8 32 17 NW 1010,5 60 0,0
02.04.2020 18:00:00 13,7 -2,8 18,4 8 4 19 10 SSW 1010,1 60 0,0
02.04.2020 17:00:00 13,6 -3,2 21,3 10 5 19 11 SW 1010,2 60 0,0
02.04.2020 16:00:00 14,3 -2,8 21,5 9 5 21 11 SW 1010,4 60 0,0
02.04.2020 15:00:00 13,0 -2,8 22,2 10 5 19 10 SW 1011,1 60 0,0
02.04.2020 14:00:00 12,0 -2,6 21,2 12 6 21 12 SW 1011,8 60 0,0
02.04.2020 13:00:00 9,5 -3,3 19,0 6 3 12 6 SSW 1013,1 60 0,0
02.04.2020 12:00:00 7,7 -1,8 16,8 4 2 9 5 S 1013,9 60 0,0
02.04.2020 11:00:00 4,8 -1,9 14,1 4 2 9 5 SSE 1015,1 60 0,0
02.04.2020 10:00:00 4,6 -0,6 11,1 4 2 9 5 E 1015,2 60 0,0
02.04.2020 09:00:00 2,4 -1,2 7,2 5 3 9 5 E 1015,9 60 0,0
02.04.2020 08:00:00 1,8 -3,9 -0,5 2 1 4 2 ENE 1016,1 28 0,0
02.04.2020 07:00:00 1,2 -5,2 -4,3 3 1 4 2 ENE 1015,9 0 0,0
02.04.2020 06:00:00 1,9 -4,1 -3,1 1 1 3 2 ENE 1015,7 0 0,0
02.04.2020 05:00:00 2,4 -6,5 -2,0 1 0 3 2 WNW 1015,7 0 0,0
02.04.2020 04:00:00 3,0 -6,7 -2,7 3 2 3 2 NE 1015,7 0 0,0

tt = Température de l'air
td = dewpoint
tt 5cm = Température de l'air 5cm
ff = Vitesse du vent
fx = gusts
dd = Direction du vent
ppp = reduced air pressure
sd = Ensoleillement
rr = Quantités de précipitations

stations d'obs. à proximité